Time;durP1;ratioP1;P1;durP2;ratioP2;P2;SDS_P1;SDS_P2;PMS_P1;PMS_P2;Temp;Humidity;BMP_temperature;BMP_pressure;BME280_temperature;BME280_humidity;BME280_pressure;Samples;Min_cycle;Max_cycle;Signal;HPM_P1;HPM_P2
2022/05/28 00:01:08;;;;;;;4.63;0.98;;;9.30;99.90;;;;;;4986952;28;20124;-65
2022/05/28 00:03:35;;;;;;;;;;;9.30;99.90;;;;;;4976561;28;20054;-66
2022/05/28 00:06:07;;;;;;;2.83;1.38;;;9.30;99.90;;;;;;4978481;28;20024;-67
2022/05/28 00:08:34;;;;;;;3.67;1.25;;;9.30;99.90;;;;;;4974303;28;20054;-64
2022/05/28 00:11:09;;;;;;;1.80;1.25;;;9.30;99.90;;;;;;4981424;28;20960;-67
2022/05/28 00:13:35;;;;;;;2.28;1.25;;;9.30;99.90;;;;;;4969303;28;20062;-64
2022/05/28 00:16:03;;;;;;;1.80;1.17;;;9.30;99.90;;;;;;4983801;28;20360;-66
2022/05/28 00:18:31;;;;;;;1.48;0.90;;;9.30;99.90;;;;;;4986539;28;20050;-67
2022/05/28 00:20:58;;;;;;;2.25;0.82;;;9.20;99.90;;;;;;4985650;28;20512;-67
2022/05/28 00:23:25;;;;;;;1.85;1.05;;;9.20;99.90;;;;;;4969568;28;20137;-70
2022/05/28 00:25:51;;;;;;;3.40;1.00;;;9.20;99.90;;;;;;4963725;28;20481;-69
2022/05/28 00:28:21;;;;;;;2.70;0.90;;;9.20;99.90;;;;;;4980059;28;20050;-65
2022/05/28 00:30:48;;;;;;;2.97;0.90;;;9.20;99.90;;;;;;4965808;28;20054;-69
2022/05/28 00:33:16;;;;;;;2.35;1.00;;;9.20;99.90;;;;;;4968388;28;20067;-66
2022/05/28 00:35:43;;;;;;;1.75;1.05;;;9.10;99.90;;;;;;4979767;28;20054;-63
2022/05/28 00:38:10;;;;;;;1.85;0.93;;;9.10;99.90;;;;;;4971708;28;20459;-70
2022/05/28 00:40:37;;;;;;;2.60;0.82;;;9.10;99.90;;;;;;4968279;28;20062;-66
2022/05/28 00:43:05;;;;;;;3.28;0.88;;;9.10;99.90;;;;;;4978680;28;20968;-66
2022/05/28 00:45:33;;;;;;;7.53;2.97;;;9.00;99.90;;;;;;4973344;28;20054;-67
2022/05/28 00:48:04;;;;;;;1.48;1.15;;;9.00;99.90;;;;;;4985636;28;20046;-68
2022/05/28 00:50:32;;;;;;;1.85;1.25;;;9.00;99.90;;;;;;4983120;28;20641;-67
2022/05/28 00:53:00;;;;;;;5.15;1.42;;;9.00;99.90;;;;;;4982532;28;20101;-66
2022/05/28 00:55:29;;;;;;;4.32;1.13;;;9.00;99.90;;;;;;4985142;28;20053;-66
2022/05/28 00:57:57;;;;;;;1.55;1.40;;;9.00;99.90;;;;;;4975010;28;20070;-63
2022/05/28 01:00:24;;;;;;;5.50;1.20;;;8.90;99.90;;;;;;4978607;28;20188;-66
2022/05/28 01:03:05;;;;;;;2.17;0.90;;;8.90;99.90;;;;;;4983015;28;20053;-65
2022/05/28 01:05:39;;;;;;;5.75;1.17;;;8.90;99.90;;;;;;4977731;28;20179;-67
2022/05/28 01:08:24;;;;;;;3.03;1.20;;;8.90;99.90;;;;;;4965138;28;20136;-67
2022/05/28 01:11:02;;;;;;;3.22;1.13;;;8.80;99.90;;;;;;4980378;28;20054;-66
2022/05/28 01:13:35;;;;;;;2.00;1.23;;;8.80;99.90;;;;;;4975723;28;20149;-67
2022/05/28 01:16:21;;;;;;;2.67;1.38;;;8.80;99.90;;;;;;4982496;28;20046;-69
2022/05/28 01:18:57;;;;;;;3.17;1.42;;;8.80;99.90;;;;;;4982266;28;20061;-67
2022/05/28 01:21:36;;;;;;;3.53;1.33;;;8.70;99.90;;;;;;4985829;28;20077;-67
2022/05/28 01:24:24;;;;;;;1.80;1.17;;;8.80;99.90;;;;;;4986335;28;20054;-69
2022/05/28 01:26:57;;;;;;;2.92;1.30;;;8.70;99.90;;;;;;4985512;28;20108;-65
2022/05/28 01:29:29;;;;;;;2.80;2.20;;;8.70;99.90;;;;;;4987413;28;20775;-65
2022/05/28 01:31:57;;;;;;;2.28;0.75;;;8.70;99.90;;;;;;4984948;28;20054;-66
2022/05/28 01:34:25;;;;;;;2.30;1.42;;;8.70;99.90;;;;;;4970572;28;20145;-65
2022/05/28 01:36:55;;;;;;;2.63;1.15;;;8.70;99.90;;;;;;4970675;28;20140;-69
2022/05/28 01:39:23;;;;;;;4.03;1.23;;;8.70;99.90;;;;;;4978786;28;20542;-64
2022/05/28 01:41:52;;;;;;;1.50;1.00;;;8.70;99.90;;;;;;4966723;28;20181;-66
2022/05/28 01:44:21;;;;;;;2.08;1.00;;;8.70;99.90;;;;;;4981979;28;20168;-66
2022/05/28 01:46:48;;;;;;;3.75;0.98;;;8.70;99.90;;;;;;4962419;28;20656;-65
2022/05/28 01:49:18;;;;;;;1.98;0.98;;;8.70;99.90;;;;;;4973212;28;20060;-66
2022/05/28 01:51:50;;;;;;;2.15;0.93;;;8.70;99.90;;;;;;4986276;28;20529;-68
2022/05/28 01:54:20;;;;;;;4.57;2.45;;;8.70;99.90;;;;;;4982049;28;20389;-68
2022/05/28 01:56:50;;;;;;;2.67;1.05;;;8.70;99.90;;;;;;4976074;28;20066;-69
2022/05/28 01:59:28;;;;;;;2.30;1.35;;;8.70;99.90;;;;;;4966037;28;20132;-65
2022/05/28 02:01:57;;;;;;;1.23;1.10;;;8.70;99.90;;;;;;4968923;28;20057;-64
2022/05/28 02:04:25;;;;;;;4.78;1.42;;;8.70;99.90;;;;;;4960021;28;20050;-69
2022/05/28 02:06:52;;;;;;;1.33;0.95;;;8.70;99.90;;;;;;4979117;28;20205;-67
2022/05/28 02:09:24;;;;;;;0.85;0.85;;;8.70;99.90;;;;;;4969032;28;20062;-66
2022/05/28 02:11:57;;;;;;;5.43;1.30;;;8.70;99.90;;;;;;4977272;28;20155;-67
2022/05/28 02:14:43;;;;;;;1.40;0.95;;;8.70;99.90;;;;;;4972318;28;20140;-66
2022/05/28 02:17:29;;;;;;;2.00;1.10;;;8.70;99.90;;;;;;4968728;28;21064;-67
2022/05/28 02:20:11;;;;;;;2.97;1.20;;;8.70;99.90;;;;;;4981838;28;20057;-65
2022/05/28 02:23:20;;;;;;;2.40;1.10;;;8.70;99.90;;;;;;4983289;28;20711;-68
2022/05/28 02:25:53;;;;;;;;;;;8.70;99.90;;;;;;4986594;28;20069;-65
2022/05/28 02:28:23;;;;;;;1.80;1.10;;;8.70;99.90;;;;;;4986340;28;19971;-66
2022/05/28 02:31:01;;;;;;;1.77;1.20;;;8.70;99.90;;;;;;4970157;28;20058;-66
2022/05/28 02:33:30;;;;;;;4.25;1.15;;;8.60;99.90;;;;;;4972443;28;20710;-68
2022/05/28 02:35:58;;;;;;;3.53;2.47;;;8.60;99.90;;;;;;4980237;28;20153;-69
2022/05/28 02:38:25;;;;;;;3.38;1.10;;;8.70;99.90;;;;;;4989163;28;20046;-66
2022/05/28 02:40:54;;;;;;;3.47;1.10;;;8.70;99.90;;;;;;4967827;28;20050;-67
2022/05/28 02:43:23;;;;;;;1.38;1.15;;;8.70;99.90;;;;;;4978169;28;20929;-68
2022/05/28 02:45:50;;;;;;;2.05;1.52;;;8.70;99.90;;;;;;4988714;28;21141;-65
2022/05/28 02:48:17;;;;;;;1.13;0.93;;;8.70;99.90;;;;;;4973004;28;20495;-67
2022/05/28 02:50:44;;;;;;;3.38;1.42;;;8.70;99.90;;;;;;4968142;28;20081;-63
2022/05/28 02:53:13;;;;;;;2.15;1.30;;;8.70;99.90;;;;;;4980184;28;20092;-67
2022/05/28 02:55:41;;;;;;;2.55;1.23;;;8.70;99.90;;;;;;4991041;28;20050;-64
2022/05/28 02:58:12;;;;;;;1.17;0.98;;;8.70;99.90;;;;;;4989315;28;20488;-65
2022/05/28 03:00:39;;;;;;;2.42;0.85;;;8.70;99.90;;;;;;4989303;28;20056;-68
2022/05/28 03:03:06;;;;;;;3.35;1.10;;;8.70;99.90;;;;;;4990214;28;20074;-65
2022/05/28 03:05:33;;;;;;;1.52;0.98;;;8.70;99.90;;;;;;4989487;28;20062;-63
2022/05/28 03:08:00;;;;;;;1.50;1.00;;;8.70;99.90;;;;;;4975641;28;20057;-66
2022/05/28 03:10:27;;;;;;;6.95;1.55;;;8.70;99.90;;;;;;4985165;28;20985;-66
2022/05/28 03:12:54;;;;;;;4.43;1.23;;;8.80;99.90;;;;;;4971771;28;20416;-68
2022/05/28 03:15:21;;;;;;;2.08;1.10;;;8.80;99.90;;;;;;4977883;28;20053;-64
2022/05/28 03:17:48;;;;;;;5.75;1.17;;;8.90;99.90;;;;;;4989926;28;20144;-65
2022/05/28 03:20:14;;;;;;;1.98;0.93;;;8.90;99.90;;;;;;4974997;28;20124;-64
2022/05/28 03:22:41;;;;;;;6.70;1.33;;;8.90;99.90;;;;;;4971865;28;20147;-67
2022/05/28 03:25:08;;;;;;;2.58;1.35;;;9.00;99.90;;;;;;4990496;28;20693;-66
2022/05/28 03:27:35;;;;;;;0.80;0.77;;;8.90;99.90;;;;;;4990069;28;20056;-67
2022/05/28 03:30:03;;;;;;;2.75;1.08;;;9.00;99.90;;;;;;4990417;28;20050;-67
2022/05/28 03:32:30;;;;;;;2.15;0.93;;;9.00;99.90;;;;;;4971187;28;20058;-67
2022/05/28 03:34:57;;;;;;;1.73;1.17;;;9.00;99.90;;;;;;4974138;28;20060;-67
2022/05/28 03:37:24;;;;;;;3.78;0.98;;;9.00;99.90;;;;;;4990356;28;20064;-64
2022/05/28 03:39:51;;;;;;;4.60;1.00;;;9.00;99.90;;;;;;4986667;28;20054;-66
2022/05/28 03:42:18;;;;;;;2.08;1.40;;;9.10;99.90;;;;;;4990703;28;20053;-69
2022/05/28 03:44:45;;;;;;;2.85;1.05;;;9.10;99.90;;;;;;4972805;28;20053;-63
2022/05/28 03:47:12;;;;;;;2.63;1.50;;;9.10;99.90;;;;;;4990568;28;20573;-66
2022/05/28 03:49:41;;;;;;;1.65;0.80;;;9.10;99.90;;;;;;4989929;28;20145;-63
2022/05/28 03:52:09;;;;;;;3.30;0.90;;;9.10;99.90;;;;;;4990169;28;20044;-68
2022/05/28 03:54:43;;;;;;;0.90;0.75;;;9.10;99.90;;;;;;4984608;28;20123;-68
2022/05/28 03:57:19;;;;;;;2.67;1.08;;;9.20;99.90;;;;;;4984173;28;20050;-64
2022/05/28 03:59:46;;;;;;;2.85;1.02;;;9.20;99.90;;;;;;4973039;28;20168;-66
2022/05/28 04:02:13;;;;;;;1.65;1.02;;;9.20;99.90;;;;;;4985747;28;20058;-64
2022/05/28 04:04:40;;;;;;;2.00;1.83;;;9.20;99.90;;;;;;4986736;28;20053;-68
2022/05/28 04:07:10;;;;;;;0.82;0.82;;;9.20;99.90;;;;;;4989737;28;20563;-66
2022/05/28 04:09:37;;;;;;;4.50;2.85;;;9.30;99.90;;;;;;4975683;28;20070;-66
2022/05/28 04:12:05;;;;;;;3.72;1.17;;;9.20;99.90;;;;;;4973378;28;20073;-64
2022/05/28 04:14:32;;;;;;;3.05;0.90;;;9.30;99.90;;;;;;4971275;28;20053;-65
2022/05/28 04:16:59;;;;;;;2.58;1.20;;;9.30;99.90;;;;;;4969326;28;20120;-67
2022/05/28 04:19:25;;;;;;;1.95;1.33;;;9.30;99.90;;;;;;4977006;28;20057;-66
2022/05/28 04:21:52;;;;;;;1.00;0.90;;;9.30;99.90;;;;;;4989588;28;20241;-66
2022/05/28 04:24:19;;;;;;;1.20;0.77;;;9.30;99.90;;;;;;4989193;28;20164;-64
2022/05/28 04:26:46;;;;;;;3.38;1.65;;;9.40;99.90;;;;;;4981323;28;20217;-64
2022/05/28 04:29:13;;;;;;;1.27;0.82;;;9.40;99.90;;;;;;4972623;28;20050;-64
2022/05/28 04:31:40;;;;;;;1.58;1.33;;;9.40;99.90;;;;;;4972868;28;20054;-66
2022/05/28 04:34:07;;;;;;;1.95;0.93;;;9.30;99.90;;;;;;4970731;28;20164;-65
2022/05/28 04:36:34;;;;;;;1.75;1.23;;;9.40;99.90;;;;;;4986775;28;20064;-67
2022/05/28 04:39:02;;;;;;;1.00;0.90;;;9.40;99.90;;;;;;4983533;28;20204;-68
2022/05/28 04:41:29;;;;;;;1.20;0.70;;;9.40;99.90;;;;;;4966725;28;20141;-66
2022/05/28 04:43:55;;;;;;;2.13;0.90;;;9.40;99.90;;;;;;4971436;28;20061;-64
2022/05/28 04:46:23;;;;;;;2.10;1.67;;;9.40;99.90;;;;;;4970786;28;20140;-66
2022/05/28 04:48:50;;;;;;;3.05;0.90;;;9.50;99.90;;;;;;4986832;28;21000;-64
2022/05/28 04:51:16;;;;;;;4.57;1.08;;;9.50;99.90;;;;;;4982699;28;20168;-65
2022/05/28 04:53:44;;;;;;;3.05;1.67;;;9.50;99.90;;;;;;4969433;28;20057;-66
2022/05/28 04:56:10;;;;;;;1.63;1.52;;;9.50;99.90;;;;;;4983849;28;20145;-65
2022/05/28 04:58:39;;;;;;;2.47;1.30;;;9.50;99.90;;;;;;4968430;28;20349;-66
2022/05/28 05:01:10;;;;;;;1.65;0.93;;;9.50;99.90;;;;;;4987914;28;20054;-64
2022/05/28 05:03:37;;;;;;;3.15;0.88;;;9.50;99.90;;;;;;4977874;28;20054;-63
2022/05/28 05:06:04;;;;;;;1.23;1.13;;;9.50;99.90;;;;;;4969751;28;20061;-67
2022/05/28 05:08:31;;;;;;;2.00;0.68;;;9.50;99.90;;;;;;4968193;28;20050;-66
2022/05/28 05:10:58;;;;;;;1.60;0.90;;;9.50;99.90;;;;;;4966915;28;20051;-68
2022/05/28 05:13:24;;;;;;;3.30;0.85;;;9.50;99.90;;;;;;4965665;28;20575;-66
2022/05/28 05:15:51;;;;;;;4.25;1.00;;;9.50;99.90;;;;;;4979364;28;20141;-63
2022/05/28 05:18:18;;;;;;;1.38;0.80;;;9.40;99.90;;;;;;4987523;28;20515;-66
2022/05/28 05:20:45;;;;;;;2.05;0.75;;;9.50;99.90;;;;;;4978595;28;20740;-64
2022/05/28 05:23:12;;;;;;;2.80;1.05;;;9.50;99.90;;;;;;4973658;28;20726;-67
2022/05/28 05:25:39;;;;;;;1.60;1.48;;;9.50;99.90;;;;;;4969556;28;20069;-65
2022/05/28 05:28:06;;;;;;;3.67;0.60;;;9.50;99.90;;;;;;4970559;28;20050;-69
2022/05/28 05:30:33;;;;;;;3.05;0.80;;;9.60;99.90;;;;;;4962699;28;20152;-67
2022/05/28 05:33:00;;;;;;;2.33;0.98;;;9.60;99.90;;;;;;4973130;28;20192;-65
2022/05/28 05:35:27;;;;;;;0.88;0.73;;;9.60;99.90;;;;;;4983490;28;20056;-66
2022/05/28 05:37:54;;;;;;;1.27;0.68;;;9.60;99.90;;;;;;4971010;28;20047;-67
2022/05/28 05:40:21;;;;;;;2.30;0.60;;;9.70;99.90;;;;;;4985443;28;20123;-64
2022/05/28 05:42:48;;;;;;;2.00;0.77;;;9.70;99.90;;;;;;4986153;28;20065;-64
2022/05/28 05:45:15;;;;;;;4.75;1.27;;;9.80;99.90;;;;;;4983922;28;20078;-63
2022/05/28 05:47:41;;;;;;;0.82;0.77;;;9.80;99.90;;;;;;4977732;28;20138;-64
2022/05/28 05:50:09;;;;;;;1.23;0.60;;;9.80;99.90;;;;;;4972586;28;20079;-65
2022/05/28 05:52:36;;;;;;;2.38;0.90;;;9.80;99.90;;;;;;4983334;28;20149;-66
2022/05/28 05:55:10;;;;;;;1.50;0.98;;;9.80;99.90;;;;;;4982287;28;20512;-66
2022/05/28 05:57:37;;;;;;;0.60;0.52;;;9.80;99.90;;;;;;4980093;28;20053;-64
2022/05/28 06:00:05;;;;;;;1.23;0.80;;;9.80;99.90;;;;;;4973804;28;20294;-64
2022/05/28 06:02:32;;;;;;;2.53;0.93;;;9.80;99.90;;;;;;4967243;28;20062;-64
2022/05/28 06:04:59;;;;;;;0.98;0.63;;;9.80;99.90;;;;;;4989312;28;20058;-64
2022/05/28 06:07:26;;;;;;;0.50;0.50;;;9.80;99.90;;;;;;4991139;28;20907;-70
2022/05/28 06:09:53;;;;;;;0.82;0.65;;;9.80;99.90;;;;;;4982479;28;20058;-65
2022/05/28 06:12:20;;;;;;;2.25;0.68;;;9.80;99.90;;;;;;4977484;28;20112;-64
2022/05/28 06:14:47;;;;;;;1.00;0.88;;;9.80;99.90;;;;;;4985694;28;20610;-65
2022/05/28 06:17:14;;;;;;;0.85;0.80;;;9.90;99.90;;;;;;4976580;28;20141;-67
2022/05/28 06:19:40;;;;;;;1.23;0.80;;;9.90;99.90;;;;;;4980619;28;20072;-64
2022/05/28 06:22:07;;;;;;;5.18;0.60;;;9.90;99.90;;;;;;4985899;28;20148;-66
2022/05/28 06:24:34;;;;;;;1.67;0.80;;;9.90;99.90;;;;;;4989605;28;20049;-66
2022/05/28 06:27:01;;;;;;;1.92;1.27;;;9.90;99.90;;;;;;4986848;28;20097;-65
2022/05/28 06:29:28;;;;;;;0.75;0.68;;;9.90;99.90;;;;;;4973842;28;20065;-65
2022/05/28 06:31:55;;;;;;;1.15;0.75;;;9.90;99.90;;;;;;4984175;28;20219;-67
2022/05/28 06:34:22;;;;;;;0.82;0.80;;;9.90;99.90;;;;;;4974996;28;20878;-67
2022/05/28 06:36:49;;;;;;;3.22;1.02;;;9.90;99.90;;;;;;4989549;28;20125;-65
2022/05/28 06:39:16;;;;;;;0.80;0.80;;;9.80;99.90;;;;;;4983943;28;20800;-67
2022/05/28 06:41:43;;;;;;;0.77;0.77;;;9.80;99.90;;;;;;4973575;28;20050;-67
2022/05/28 06:44:11;;;;;;;1.65;0.70;;;9.80;99.90;;;;;;4999150;28;20113;-63
2022/05/28 06:46:38;;;;;;;1.08;0.98;;;9.80;99.90;;;;;;4976723;28;20700;-63
2022/05/28 06:49:05;;;;;;;2.33;0.70;;;9.80;99.90;;;;;;4988047;28;20091;-67
2022/05/28 06:51:33;;;;;;;2.05;0.80;;;9.70;99.90;;;;;;4981915;28;20166;-64
2022/05/28 06:54:00;;;;;;;1.00;0.60;;;9.70;99.90;;;;;;4973928;28;20141;-66
2022/05/28 06:56:27;;;;;;;2.13;0.80;;;9.70;99.90;;;;;;4970448;28;20122;-65
2022/05/28 06:58:53;;;;;;;1.60;0.80;;;9.70;99.90;;;;;;4988960;28;21277;-67
2022/05/28 07:01:20;;;;;;;1.67;0.93;;;9.70;99.90;;;;;;4982076;28;20132;-64
2022/05/28 07:03:48;;;;;;;0.90;0.70;;;9.70;99.90;;;;;;4981231;28;20062;-66
2022/05/28 07:06:15;;;;;;;4.50;0.95;;;9.70;99.90;;;;;;4986225;28;20062;-66
2022/05/28 07:08:43;;;;;;;3.88;0.82;;;9.70;99.90;;;;;;4985877;28;20133;-66
2022/05/28 07:11:11;;;;;;;3.33;0.80;;;9.70;99.90;;;;;;4978599;28;20050;-64
2022/05/28 07:13:39;;;;;;;1.20;0.55;;;9.70;99.90;;;;;;4981556;28;20584;-65
2022/05/28 07:16:07;;;;;;;1.58;0.57;;;9.80;99.90;;;;;;4972820;28;20611;-64
2022/05/28 07:18:36;;;;;;;1.55;0.70;;;9.70;99.90;;;;;;4974063;28;21067;-64
2022/05/28 07:21:03;;;;;;;1.52;1.08;;;9.70;99.90;;;;;;4989734;28;20045;-67
2022/05/28 07:26:57;;;;;;;0.82;0.70;;;9.90;99.90;;;;;;5005379;27;20424;-67
2022/05/28 07:29:24;;;;;;;1.95;0.80;;;9.80;99.90;;;;;;5009183;28;20076;-69
2022/05/28 07:31:51;;;;;;;1.60;0.80;;;9.80;99.90;;;;;;5007828;28;20523;-69
2022/05/28 07:34:18;;;;;;;0.77;0.70;;;9.70;99.90;;;;;;5006775;28;20060;-66
2022/05/28 07:36:47;;;;;;;3.17;1.67;;;9.70;99.90;;;;;;5039813;28;21007;-67
2022/05/28 07:39:15;;;;;;;1.40;0.77;;;9.70;99.90;;;;;;5028047;28;20052;-68
2022/05/28 07:41:43;;;;;;;3.40;1.15;;;9.70;99.90;;;;;;5047255;28;20140;-69
2022/05/28 07:44:11;;;;;;;1.75;1.05;;;9.70;99.90;;;;;;5045495;28;20068;-68
2022/05/28 07:46:38;;;;;;;4.97;1.10;;;9.70;99.90;;;;;;5045189;28;20801;-68
2022/05/28 07:49:05;;;;;;;1.30;1.20;;;9.70;99.90;;;;;;5046847;28;20045;-70
2022/05/28 07:51:35;;;;;;;3.78;1.27;;;9.70;99.90;;;;;;5027176;28;20053;-68
2022/05/28 07:54:04;;;;;;;2.22;1.40;;;9.70;99.90;;;;;;5043119;28;20159;-73
2022/05/28 07:56:32;;;;;;;2.65;1.40;;;9.70;99.90;;;;;;5046785;28;20044;-74
2022/05/28 07:58:59;;;;;;;1.60;1.45;;;9.70;99.90;;;;;;5046256;28;20175;-71
2022/05/28 08:01:31;;;;;;;1.60;1.50;;;9.70;99.90;;;;;;5046874;28;20048;-69
2022/05/28 08:04:06;;;;;;;2.17;1.92;;;9.70;99.90;;;;;;5046136;28;20051;-74
2022/05/28 08:06:33;;;;;;;2.40;1.30;;;9.80;99.90;;;;;;5045826;28;20044;-68
2022/05/28 08:09:01;;;;;;;4.95;4.10;;;9.90;99.90;;;;;;5041531;28;21124;-68
2022/05/28 08:11:28;;;;;;;2.03;1.70;;;10.00;99.90;;;;;;5046104;28;20286;-70
2022/05/28 08:13:55;;;;;;;3.33;1.58;;;10.00;99.90;;;;;;5047267;28;20139;-66
2022/05/28 08:16:22;;;;;;;3.42;1.60;;;10.00;99.90;;;;;;5047243;28;20144;-69
2022/05/28 08:18:50;;;;;;;3.00;1.67;;;10.00;99.90;;;;;;5044524;28;20052;-69
2022/05/28 08:24:05;;;;;;;2.85;2.15;;;10.00;99.90;;;;;;5046192;28;20114;-69
2022/05/28 08:26:33;;;;;;;3.15;2.17;;;10.10;99.90;;;;;;5040155;28;20131;-66
2022/05/28 08:28:59;;;;;;;3.80;2.45;;;10.10;99.90;;;;;;5046442;28;20132;-67
2022/05/28 08:31:26;;;;;;;5.90;1.77;;;10.10;99.90;;;;;;5044441;28;20048;-70
2022/05/28 08:33:53;;;;;;;2.25;1.83;;;10.20;99.90;;;;;;5045503;28;20052;-69
2022/05/28 08:36:20;;;;;;;2.67;1.88;;;10.10;99.90;;;;;;5044934;28;20530;-65
2022/05/28 08:38:48;;;;;;;2.55;2.15;;;10.00;99.90;;;;;;5027391;28;20155;-69
2022/05/28 08:41:30;;;;;;;2.17;2.03;;;10.00;99.90;;;;;;5011949;28;20132;-67
2022/05/28 08:44:07;;;;;;;4.13;1.73;;;10.00;99.90;;;;;;5032783;28;20099;-68
2022/05/28 08:46:36;;;;;;;2.63;2.05;;;10.00;99.90;;;;;;5030306;28;20057;-66
2022/05/28 08:49:06;;;;;;;2.00;1.67;;;10.10;99.90;;;;;;5031068;28;20044;-68
2022/05/28 08:51:54;;;;;;;2.10;1.73;;;10.10;99.90;;;;;;5028030;28;20555;-68
2022/05/28 08:54:23;;;;;;;3.47;1.55;;;10.00;99.90;;;;;;5032542;28;20072;-71
2022/05/28 08:56:53;;;;;;;3.97;2.67;;;10.10;99.90;;;;;;5029074;28;20049;-67
2022/05/28 08:59:27;;;;;;;2.60;2.15;;;10.10;99.90;;;;;;5032257;28;20081;-64
2022/05/28 09:02:01;;;;;;;3.00;2.33;;;10.10;99.90;;;;;;5032777;28;20519;-71
2022/05/28 09:04:35;;;;;;;3.95;3.05;;;10.00;99.90;;;;;;5028366;28;20059;-65
2022/05/28 09:07:10;;;;;;;2.53;2.33;;;10.00;99.90;;;;;;5028790;28;21526;-70
2022/05/28 09:09:43;;;;;;;2.60;2.40;;;10.10;99.90;;;;;;5032420;28;20067;-70
2022/05/28 09:12:25;;;;;;;2.53;2.33;;;10.10;99.90;;;;;;5031179;28;20202;-69
2022/05/28 09:14:52;;;;;;;2.72;2.53;;;10.10;99.90;;;;;;5030192;28;20052;-73
2022/05/28 09:17:40;;;;;;;2.00;1.70;;;10.00;99.90;;;;;;5031999;28;20135;-70
2022/05/28 09:20:15;;;;;;;2.50;1.80;;;10.00;99.90;;;;;;5031215;28;21052;-67
2022/05/28 09:22:42;;;;;;;2.28;1.70;;;10.00;99.90;;;;;;5026075;28;20099;-71
2022/05/28 09:25:10;;;;;;;2.65;1.80;;;10.00;99.90;;;;;;5030842;28;20604;-68
2022/05/28 09:28:13;;;;;;;2.30;2.20;;;10.00;99.90;;;;;;5032986;28;20052;-67
2022/05/28 09:31:09;;;;;;;7.70;3.60;;;10.00;99.90;;;;;;5009820;28;20190;-66
2022/05/28 09:33:51;;;;;;;2.08;1.98;;;10.00;99.90;;;;;;5030837;28;20052;-65
2022/05/28 09:36:56;;;;;;;2.30;2.10;;;10.00;99.90;;;;;;5031916;28;20053;-65
2022/05/28 09:39:29;;;;;;;3.25;2.17;;;10.00;99.90;;;;;;5026467;28;20048;-69
2022/05/28 09:42:12;;;;;;;1.95;1.60;;;10.00;99.90;;;;;;5030895;28;20160;-68
2022/05/28 09:45:16;;;;;;;3.17;2.20;;;10.00;99.90;;;;;;5028815;28;20052;-70
2022/05/28 09:47:52;;;;;;;2.17;1.95;;;9.90;99.90;;;;;;5022664;28;20708;-67
2022/05/28 09:50:23;;;;;;;3.03;1.67;;;10.00;99.90;;;;;;5029301;28;20584;-71
2022/05/28 09:55:58;;;;;;;4.88;1.58;;;10.00;99.90;;;;;;5027446;28;20049;-68
2022/05/28 09:58:30;;;;;;;2.85;1.83;;;10.00;99.90;;;;;;5031747;28;20049;-69
2022/05/28 10:01:22;;;;;;;2.13;1.92;;;10.00;99.90;;;;;;5026206;28;20135;-70
2022/05/28 10:06:50;;;;;;;3.05;2.22;;;10.00;99.90;;;;;;5029476;28;20653;-65
2022/05/28 10:09:27;;;;;;;3.70;2.00;;;10.00;99.90;;;;;;5029129;28;20049;-71
2022/05/28 10:11:56;;;;;;;3.30;2.90;;;10.00;99.90;;;;;;5026868;28;20053;-69
2022/05/28 10:14:28;;;;;;;3.40;2.10;;;9.90;99.90;;;;;;5031601;28;20075;-72
2022/05/28 10:17:00;;;;;;;4.30;2.97;;;10.00;99.90;;;;;;5028629;28;20048;-69
2022/05/28 10:19:41;;;;;;;5.18;2.70;;;9.90;99.90;;;;;;5042769;28;20420;-64
2022/05/28 10:22:18;;;;;;;8.98;3.00;;;10.00;99.90;;;;;;5030476;28;20044;-69
2022/05/28 10:24:50;;;;;;;5.40;2.70;;;10.00;99.90;;;;;;5029391;28;20103;-71
2022/05/28 10:27:38;;;;;;;5.70;3.17;;;10.00;99.90;;;;;;5027630;28;21166;-68
2022/05/28 10:30:20;;;;;;;3.85;3.55;;;10.10;99.90;;;;;;5030344;28;20072;-67
2022/05/28 10:32:49;;;;;;;3.40;3.10;;;10.20;99.90;;;;;;5029487;28;21500;-68
2022/05/28 10:35:28;;;;;;;7.88;3.70;;;10.10;99.90;;;;;;5030393;28;20040;-72
2022/05/28 10:38:09;;;;;;;2.95;2.75;;;10.10;99.90;;;;;;5030972;28;20831;-68
2022/05/28 10:40:47;;;;;;;4.25;2.50;;;10.10;99.90;;;;;;5028908;28;20061;-75
2022/05/28 10:43:28;;;;;;;3.30;3.00;;;10.00;99.90;;;;;;5028987;28;20372;-66
2022/05/28 10:46:13;;;;;;;4.97;2.97;;;10.00;99.90;;;;;;5030016;28;20772;-65
2022/05/28 10:49:02;;;;;;;3.35;3.05;;;10.00;99.90;;;;;;5027829;28;20266;-69
2022/05/28 10:51:34;;;;;;;6.53;2.58;;;10.00;99.90;;;;;;5031098;28;20057;-71
2022/05/28 10:54:34;;;;;;;3.03;2.75;;;10.10;99.90;;;;;;5030414;28;20044;-71
2022/05/28 10:57:18;;;;;;;3.83;3.53;;;10.00;99.90;;;;;;5026894;28;20095;-68
2022/05/28 11:00:14;;;;;;;4.43;3.10;;;10.10;99.90;;;;;;5025277;28;20901;-69
2022/05/28 11:02:44;;;;;;;7.07;4.05;;;10.10;99.90;;;;;;5028146;28;20077;-71
2022/05/28 11:05:48;;;;;;;4.25;3.22;;;10.10;99.90;;;;;;5028855;28;20122;-69
2022/05/28 11:08:38;;;;;;;3.80;3.30;;;10.10;99.90;;;;;;5028878;28;20044;-68
2022/05/28 11:11:22;;;;;;;7.07;4.22;;;10.00;99.90;;;;;;5027960;28;20056;-67
2022/05/28 11:13:51;;;;;;;3.70;3.40;;;10.00;99.90;;;;;;5026371;28;20049;-66
2022/05/28 11:16:52;;;;;;;4.57;4.00;;;10.00;99.90;;;;;;5030181;28;20162;-73
2022/05/28 11:19:34;;;;;;;4.85;3.63;;;10.00;99.90;;;;;;5027949;28;20363;-69
2022/05/28 11:22:04;;;;;;;8.52;4.25;;;10.00;99.90;;;;;;5031201;28;20053;-66
2022/05/28 11:24:55;;;;;;;4.70;3.78;;;10.00;99.90;;;;;;5029255;28;20055;-67
2022/05/28 11:27:47;;;;;;;4.93;4.00;;;10.00;99.90;;;;;;5020422;28;20044;-67
2022/05/28 11:30:22;;;;;;;6.90;5.32;;;10.00;99.90;;;;;;5030168;28;20049;-71
2022/05/28 11:33:10;;;;;;;8.27;4.35;;;9.90;99.90;;;;;;5028326;28;20140;-68
2022/05/28 11:35:49;;;;;;;5.43;3.78;;;9.90;99.90;;;;;;5029294;28;20850;-67
2022/05/28 11:38:25;;;;;;;6.22;4.57;;;9.90;99.90;;;;;;5030226;28;20052;-68
2022/05/28 11:41:10;;;;;;;4.97;4.18;;;9.90;99.90;;;;;;5023672;28;20060;-67
2022/05/28 11:44:04;;;;;;;6.55;4.85;;;10.00;99.90;;;;;;5029991;28;20061;-71
2022/05/28 11:46:39;;;;;;;6.07;4.53;;;10.00;99.90;;;;;;5027890;28;20396;-71
2022/05/28 11:52:34;;;;;;;8.88;3.72;;;10.00;99.90;;;;;;5030452;28;20127;-68
2022/05/28 11:55:18;;;;;;;3.85;3.45;;;9.90;99.90;;;;;;5023703;28;20055;-68
2022/05/28 11:58:15;;;;;;;6.05;3.80;;;10.00;99.90;;;;;;5030800;28;20152;-72
2022/05/28 12:00:50;;;;;;;6.40;4.05;;;9.90;99.90;;;;;;5026674;28;20148;-73
2022/05/28 12:03:21;;;;;;;4.90;4.45;;;9.80;99.90;;;;;;5029894;28;20107;-69
2022/05/28 12:06:03;;;;;;;4.35;3.97;;;9.80;99.90;;;;;;5028978;28;20045;-69
2022/05/28 12:08:42;;;;;;;5.15;4.00;;;9.80;99.90;;;;;;5025924;28;20160;-70
2022/05/28 12:11:31;;;;;;;7.72;4.05;;;9.80;99.90;;;;;;5024023;28;20864;-68
2022/05/28 12:14:03;;;;;;;5.18;4.68;;;9.80;99.90;;;;;;5033680;28;20044;-68
2022/05/28 12:16:36;;;;;;;7.45;3.67;;;9.80;99.90;;;;;;5010329;28;20140;-66
2022/05/28 12:19:13;;;;;;;13.77;4.30;;;9.90;99.90;;;;;;5032296;28;20053;-72
2022/05/28 12:21:43;;;;;;;6.53;5.05;;;9.90;99.90;;;;;;5032969;28;20223;-71
2022/05/28 12:24:27;;;;;;;6.63;6.05;;;9.90;99.90;;;;;;5031979;28;20059;-73
2022/05/28 12:29:58;;;;;;;5.38;4.38;;;9.80;99.90;;;;;;5035061;28;20064;-70
2022/05/28 12:32:29;;;;;;;5.47;4.57;;;9.80;99.90;;;;;;5034886;28;20049;-69
2022/05/28 12:35:22;;;;;;;6.60;4.70;;;9.80;99.90;;;;;;5030831;28;20053;-69
2022/05/28 12:37:52;;;;;;;5.13;4.53;;;9.80;99.90;;;;;;5034003;28;20140;-71
2022/05/28 12:40:22;;;;;;;;;;;9.80;99.90;;;;;;5016076;28;20056;-68
2022/05/28 12:42:49;;;;;;;4.88;4.47;;;9.90;99.90;;;;;;5026856;28;20678;-72
2022/05/28 12:45:31;;;;;;;6.75;4.30;;;9.80;99.90;;;;;;5032748;28;20059;-74
2022/05/28 12:48:14;;;;;;;5.68;5.03;;;9.90;99.90;;;;;;5019825;28;20071;-68
2022/05/28 12:51:12;;;;;;;4.97;3.88;;;9.90;99.90;;;;;;5029773;28;20206;-73
2022/05/28 12:54:00;;;;;;;5.75;4.05;;;9.80;99.90;;;;;;5032490;28;20160;-68
2022/05/28 12:56:28;;;;;;;4.15;3.80;;;9.90;99.90;;;;;;5029588;28;20080;-66
2022/05/28 12:59:10;;;;;;;6.68;4.32;;;9.90;99.90;;;;;;5032264;28;20060;-66
2022/05/28 13:01:46;;;;;;;4.35;3.97;;;9.90;99.90;;;;;;5033155;28;20188;-66
2022/05/28 13:04:19;;;;;;;4.40;4.00;;;9.90;99.90;;;;;;5031292;28;21105;-68
2022/05/28 13:06:53;;;;;;;8.73;5.13;;;9.90;99.90;;;;;;5030554;28;20056;-70
2022/05/28 13:09:27;;;;;;;4.72;3.33;;;10.00;99.90;;;;;;5029110;28;20107;-67
2022/05/28 13:12:29;;;;;;;5.07;4.32;;;10.00;99.90;;;;;;5031270;28;20063;-66
2022/05/28 13:15:38;;;;;;;4.30;3.92;;;10.10;99.90;;;;;;5028537;28;20052;-68
2022/05/28 13:18:32;;;;;;;5.78;4.28;;;10.10;99.90;;;;;;5010738;28;20140;-68
2022/05/28 13:21:14;;;;;;;4.93;4.30;;;10.10;99.90;;;;;;5028587;28;20056;-67
2022/05/28 13:24:06;;;;;;;5.53;3.70;;;10.10;99.90;;;;;;5029731;28;20053;-69
2022/05/28 13:26:58;;;;;;;3.53;3.22;;;10.10;99.90;;;;;;5027518;28;20140;-69
2022/05/28 13:29:56;;;;;;;3.35;3.05;;;10.10;99.90;;;;;;5030227;28;20065;-71
2022/05/28 13:32:29;;;;;;;5.40;3.95;;;10.10;99.90;;;;;;5030224;28;20068;-65
2022/05/28 13:35:09;;;;;;;4.00;3.58;;;10.10;99.90;;;;;;5026074;28;20173;-68
2022/05/28 13:37:38;;;;;;;5.75;4.47;;;10.20;99.90;;;;;;5031894;28;20115;-70
2022/05/28 13:40:10;;;;;;;4.05;3.70;;;10.10;99.90;;;;;;5029709;28;21265;-67
2022/05/28 13:42:38;;;;;;;5.35;3.78;;;10.20;99.90;;;;;;5028403;28;21492;-66